createdAt,value
2019-02-22T00:02:35.088Z,101101.55
2019-02-22T00:07:39.456Z,101109.62
2019-02-22T00:12:43.731Z,101109.62
2019-02-22T00:17:48.028Z,101097.43
2019-02-22T00:22:52.307Z,101120.30
2019-02-22T00:27:56.627Z,101117.77
2019-02-22T00:33:00.784Z,101123.09
2019-02-22T00:38:05.071Z,101112.66
2019-02-22T00:43:09.362Z,101123.38
2019-02-22T00:48:13.647Z,101125.39
2019-02-22T00:53:17.875Z,101117.47
2019-02-22T00:58:22.074Z,101113.78
2019-02-22T01:03:26.157Z,101113.78
2019-02-22T01:08:30.284Z,101124.20
2019-02-22T01:13:34.461Z,101126.99
2019-02-22T01:18:38.591Z,101116.69
2019-02-22T01:23:42.739Z,101130.31
2019-02-22T01:28:46.871Z,101130.31
2019-02-22T01:33:50.991Z,101152.88
2019-02-22T01:38:55.138Z,101154.70
2019-02-22T01:43:59.207Z,101154.70
2019-02-22T01:49:03.393Z,101158.13
2019-02-22T01:54:07.419Z,101158.13
2019-02-22T01:59:11.550Z,101172.13
2019-02-22T02:04:15.696Z,101177.75
2019-02-22T02:09:19.955Z,101183.32
2019-02-22T02:14:23.975Z,101188.31
2019-02-22T02:19:27.998Z,101194.23
2019-02-22T02:24:32.187Z,101201.45
2019-02-22T02:29:36.319Z,101197.49
2019-02-22T02:34:40.358Z,101214.70
2019-02-22T02:39:44.465Z,101214.70
2019-02-22T02:44:48.640Z,101222.05
2019-02-22T02:49:52.695Z,101228.39
2019-02-22T02:54:56.759Z,101234.78
2019-02-22T03:00:00.823Z,101240.64
2019-02-22T03:05:05.188Z,101240.64
2019-02-22T03:10:09.455Z,101253.80
2019-02-22T03:15:14.408Z,101261.93
2019-02-22T03:20:18.534Z,101269.70
2019-02-22T03:25:22.561Z,101272.48
2019-02-22T03:30:26.598Z,101270.74
2019-02-22T03:35:30.827Z,101274.13
2019-02-22T03:40:35.127Z,101274.13
2019-02-22T03:45:39.339Z,101287.35
2019-02-22T03:50:43.483Z,101293.30
2019-02-22T03:55:47.706Z,101302.64
2019-02-22T04:00:51.976Z,101312.05
2019-02-22T04:05:56.154Z,101312.05
2019-02-22T04:11:00.383Z,101328.76
2019-02-22T04:16:04.553Z,101328.76
2019-02-22T04:21:08.750Z,101358.92
2019-02-22T04:26:12.877Z,101357.44
2019-02-22T04:31:17.048Z,101370.72
2019-02-22T04:36:21.236Z,101372.02
2019-02-22T04:41:25.475Z,101372.02
2019-02-22T04:46:29.769Z,101383.56
2019-02-22T04:51:33.878Z,101388.38
2019-02-22T04:56:38.042Z,101394.98
2019-02-22T05:01:42.136Z,101399.02
2019-02-22T05:06:46.270Z,101410.57
2019-02-22T05:11:50.450Z,101413.20
2019-02-22T05:16:54.547Z,101413.20
2019-02-22T05:21:58.594Z,101422.10
2019-02-22T05:27:02.879Z,101430.97
2019-02-22T05:32:07.020Z,101429.14
2019-02-22T05:37:11.191Z,101436.35
2019-02-22T05:42:22.813Z,101447.98
2019-02-22T05:47:21.111Z,101454.19
2019-02-22T05:52:25.280Z,101467.32
2019-02-22T05:57:29.349Z,101481.40
2019-02-22T06:02:38.175Z,101481.40
2019-02-22T06:07:42.301Z,101507.42
2019-02-22T06:12:46.304Z,101521.84
2019-02-22T06:17:50.512Z,101521.84
2019-02-22T06:22:54.542Z,101538.69
2019-02-22T06:27:58.577Z,101527.95
2019-02-22T06:33:02.637Z,101556.87
2019-02-22T06:38:06.712Z,101556.48
2019-02-22T06:43:10.739Z,101556.48
2019-02-22T06:48:14.767Z,101574.97
2019-02-22T06:53:18.852Z,101584.95
2019-02-22T06:58:22.978Z,101598.22
2019-02-22T07:03:26.997Z,101612.08
2019-02-22T07:08:31.008Z,101618.02
2019-02-22T07:13:35.229Z,101629.26
2019-02-22T07:18:39.242Z,101629.26
2019-02-22T07:23:43.361Z,101636.59
2019-02-22T07:28:47.467Z,101660.97
2019-02-22T07:33:51.559Z,101673.59
2019-02-22T07:38:55.801Z,101673.59
2019-02-22T07:43:59.836Z,101689.89
2019-02-22T07:49:03.865Z,101705.65
2019-02-22T07:54:07.914Z,101721.04
2019-02-22T07:59:11.938Z,101733.77
2019-02-22T08:04:15.964Z,101747.95
2019-02-22T08:09:19.974Z,101755.73
2019-02-22T08:14:24.129Z,101760.33
2019-02-22T08:19:28.142Z,101760.33
2019-02-22T08:24:32.157Z,101775.66
2019-02-22T08:29:38.217Z,101802.73
2019-02-22T08:34:41.941Z,101802.73
2019-02-22T08:45:03.222Z,101823.45
2019-02-22T08:50:07.420Z,101859.06
2019-02-22T08:55:11.449Z,101861.16
2019-02-22T09:00:15.686Z,101871.02
2019-02-22T09:05:19.779Z,101887.99
2019-02-22T09:10:23.806Z,101887.99
2019-02-22T09:15:27.914Z,101895.20
2019-02-22T09:20:31.932Z,101903.09
2019-02-22T09:25:35.964Z,101923.52
2019-02-22T09:30:39.985Z,101929.08
2019-02-22T09:35:44.025Z,101936.35
2019-02-22T09:40:48.324Z,101953.14
2019-02-22T09:45:52.379Z,101953.14
2019-02-22T09:50:56.385Z,101984.25
2019-02-22T09:56:00.490Z,101988.36
2019-02-22T10:01:04.551Z,101994.67
2019-02-22T10:06:11.027Z,102011.08
2019-02-22T10:11:15.091Z,102013.10
2019-02-22T10:16:19.121Z,102035.27
2019-02-22T10:21:23.165Z,102042.03
2019-02-22T10:26:27.269Z,102042.03
2019-02-22T10:31:31.296Z,102053.73
2019-02-22T10:36:44.664Z,102067.79
2019-02-22T10:41:41.164Z,102085.78
2019-02-22T10:46:45.198Z,102088.20
2019-02-22T10:51:49.258Z,102094.86
2019-02-22T10:56:53.276Z,102096.55
2019-02-22T11:01:57.320Z,102096.55
2019-02-22T11:07:01.414Z,102091.63
2019-02-22T11:12:05.531Z,102111.87
2019-02-22T11:17:09.649Z,102123.17
2019-02-22T11:22:13.665Z,102138.41
2019-02-22T11:27:17.690Z,102142.52
2019-02-22T11:32:21.723Z,102142.52
2019-02-22T11:37:25.764Z,102161.66
2019-02-22T11:42:29.812Z,102175.67
2019-02-22T11:47:33.908Z,102179.77
2019-02-22T11:52:37.949Z,102187.03
2019-02-22T11:57:42.131Z,102200.82
2019-02-22T12:02:46.633Z,102206.73
2019-02-22T12:07:50.877Z,102206.73
2019-02-22T12:12:55.014Z,102203.45
2019-02-22T12:17:59.095Z,102203.45
2019-02-22T12:23:03.287Z,102226.85
2019-02-22T12:28:07.403Z,102242.72
2019-02-22T12:33:11.537Z,102255.67
2019-02-22T12:38:15.613Z,102256.87
2019-02-22T12:43:19.783Z,102256.87
2019-02-22T12:48:23.824Z,102269.66
2019-02-22T12:53:28.006Z,102278.58
2019-02-22T12:58:32.082Z,102278.58
2019-02-22T13:03:36.293Z,102291.04
2019-02-22T13:08:40.370Z,102303.12
2019-02-22T13:13:44.464Z,102303.12
2019-02-22T13:18:48.520Z,102342.44
2019-02-22T13:23:52.711Z,102352.73
2019-02-22T13:28:56.735Z,102352.73
2019-02-22T13:34:00.899Z,102364.82
2019-02-22T13:39:06.066Z,102366.98
2019-02-22T13:44:10.308Z,102366.58
2019-02-22T13:49:14.407Z,102383.07
2019-02-22T13:54:18.562Z,102383.07
2019-02-22T13:59:22.663Z,102399.61
2019-02-22T14:04:26.798Z,102413.07
2019-02-22T14:09:30.834Z,102417.98
2019-02-22T14:14:34.908Z,102422.02
2019-02-22T14:19:38.970Z,102422.02
2019-02-22T14:24:43.105Z,102427.81
2019-02-22T14:29:47.137Z,102423.31
2019-02-22T14:34:51.249Z,102423.31
2019-02-22T14:40:02.981Z,102435.07
2019-02-22T14:45:01.995Z,102442.48
2019-02-22T14:50:09.667Z,102442.48
2019-02-22T14:55:13.986Z,102446.86
2019-02-22T15:00:18.307Z,102456.81
2019-02-22T15:05:22.478Z,102444.52
2019-02-22T15:10:26.531Z,102444.52
2019-02-22T15:15:43.472Z,102459.19
2019-02-22T15:20:49.818Z,102459.19
2019-02-22T15:25:53.942Z,102470.95
2019-02-22T15:30:58.096Z,102475.02
2019-02-22T15:36:02.117Z,102488.06
2019-02-22T15:41:06.303Z,102504.60
2019-02-22T15:46:12.458Z,102517.07
2019-02-22T15:51:16.100Z,102517.07
2019-02-22T15:56:20.217Z,102518.33
2019-02-22T16:01:24.317Z,102522.78
2019-02-22T16:06:28.515Z,102519.68
2019-02-22T16:11:32.707Z,102521.52
2019-02-22T16:16:36.838Z,102508.84
2019-02-22T16:21:40.873Z,102529.71
2019-02-22T16:26:44.921Z,102544.47
2019-02-22T16:31:49.122Z,102560.09
2019-02-22T16:36:53.162Z,102560.09
2019-02-22T16:41:57.214Z,102570.92
2019-02-22T16:47:01.423Z,102569.57
2019-02-22T16:52:05.619Z,102575.84
2019-02-22T16:57:09.832Z,102577.10
2019-02-22T17:02:14.025Z,102581.41
2019-02-22T17:07:18.142Z,102581.41
2019-02-22T17:12:22.247Z,102583.01
2019-02-22T17:17:26.364Z,102576.84
2019-02-22T17:22:30.568Z,102576.84
2019-02-22T17:27:34.833Z,102575.84
2019-02-22T17:32:38.972Z,102591.10
2019-02-22T17:37:42.997Z,102603.72
2019-02-22T17:42:47.101Z,102605.06
2019-02-22T17:47:51.362Z,102605.06
2019-02-22T17:52:55.479Z,102632.84
2019-02-22T17:57:59.592Z,102643.75
2019-02-22T18:03:03.744Z,102643.75
2019-02-22T18:08:07.788Z,102656.08
2019-02-22T18:13:11.915Z,102653.02
2019-02-22T18:18:16.043Z,102649.54
2019-02-22T18:23:20.369Z,102644.95
2019-02-22T18:28:25.130Z,102644.22
2019-02-22T18:33:29.158Z,102644.22
2019-02-22T18:38:33.283Z,102669.07
2019-02-22T18:43:37.394Z,102669.07
2019-02-22T18:48:41.523Z,102678.70
2019-02-22T18:53:45.571Z,102678.70
2019-02-22T18:58:49.607Z,102704.97
2019-02-22T19:03:53.687Z,102700.51
2019-02-22T19:08:57.744Z,102700.51
2019-02-22T19:14:01.816Z,102701.14
2019-02-22T19:19:05.939Z,102709.14
2019-02-22T19:24:10.125Z,102709.27
2019-02-22T19:29:14.191Z,102710.36
2019-02-22T19:34:18.353Z,102709.73
2019-02-22T19:39:22.483Z,102711.45
2019-02-22T19:44:26.570Z,102706.31
2019-02-22T19:49:30.703Z,102706.31
2019-02-22T19:54:34.894Z,102715.36
2019-02-22T19:59:38.958Z,102727.19
2019-02-22T20:04:43.076Z,102712.95
2019-02-22T20:09:47.137Z,102715.42
2019-02-22T20:14:51.245Z,102717.62
2019-02-22T20:19:55.332Z,102716.08
2019-02-22T20:24:59.445Z,102716.08
2019-02-22T20:30:03.937Z,102728.73
2019-02-22T20:35:10.241Z,102731.28
2019-02-22T20:40:14.433Z,102755.84
2019-02-22T20:45:18.497Z,102756.05
2019-02-22T20:50:22.639Z,102775.53
2019-02-22T20:55:26.839Z,102781.98
2019-02-22T21:00:31.067Z,102781.65
2019-02-22T21:05:35.151Z,102780.91
2019-02-22T21:10:39.243Z,102782.39
2019-02-22T21:15:43.370Z,102783.84
2019-02-22T21:20:47.510Z,102781.70
2019-02-22T21:25:51.634Z,102774.14
2019-02-22T21:30:55.799Z,102788.49
2019-02-22T21:35:59.906Z,102782.71
2019-02-22T21:41:04.169Z,102776.55
2019-02-22T21:46:08.239Z,102771.70
2019-02-22T21:51:12.291Z,102763.21
2019-02-22T21:56:16.475Z,102771.82
2019-02-22T22:01:20.528Z,102771.82
2019-02-22T22:06:24.764Z,102771.48
2019-02-22T22:11:28.932Z,102772.42
2019-02-22T22:16:33.034Z,102794.39
2019-02-22T22:21:37.419Z,102808.41
2019-02-22T22:26:41.497Z,102818.35
2019-02-22T22:31:45.522Z,102832.31
2019-02-22T22:36:49.562Z,102840.84
2019-02-22T22:41:53.760Z,102840.84
2019-02-22T22:46:57.821Z,102848.64
2019-02-22T22:52:03.938Z,102839.42
2019-02-22T22:57:08.216Z,102848.64
2019-02-22T23:02:12.667Z,102848.64
2019-02-22T23:07:16.782Z,102861.17
2019-02-22T23:12:20.808Z,102873.37
2019-02-22T23:17:24.886Z,102871.55
2019-02-22T23:22:28.959Z,102879.64
2019-02-22T23:27:33.688Z,102875.67
2019-02-22T23:32:37.737Z,102875.67
2019-02-22T23:37:41.882Z,102882.52
2019-02-22T23:42:46.000Z,102882.52
2019-02-22T23:47:50.048Z,102886.61
2019-02-22T23:52:54.173Z,102886.61
2019-02-22T23:57:58.209Z,102853.41
